Weston-Spr-Mare, United Kingdom
Current Conditions -  °F | °C
As of 1:20 PM on Wednesday 22 Oct 2014 (Local Time) from EGGD Reporting Station
Broken Clouds Broken Clouds  
Wind Chill: 52°   Ceiling: 3300
Heat Index: 52°   Visibility: 6mi
Dew Point: 45°   Wind: 15mph
Humidity: 76%   Direction: 280°W
Pressure: 30.3"   Gusts: NA
Location:  51.33°N, 2.98°W
Report Text: EGGD 221220Z 28013KT 9999 SCT023 BKN033 11/07 Q1026
Loading
Personal Weather Stations






























Interactive Weather Map New forecast layout! Learn more

10-Day Weather Forecast

Advertisements
Track Severe Weather on mobile